createdAt,value
2022-12-13T00:01:13.424Z,19.67
2022-12-13T00:05:57.120Z,14.63
2022-12-13T00:10:40.797Z,20.60
2022-12-13T00:15:24.299Z,18.17
2022-12-13T00:20:10.132Z,16.23
2022-12-13T00:24:57.005Z,19.50
2022-12-13T00:29:40.556Z,21.13
2022-12-13T00:34:24.259Z,20.40
2022-12-13T00:39:13.050Z,18.73
2022-12-13T00:43:56.595Z,16.93
2022-12-13T00:48:40.484Z,17.63
2022-12-13T00:53:23.967Z,14.03
2022-12-13T00:58:08.848Z,16.50
2022-12-13T01:02:53.921Z,19.53
2022-12-13T01:07:38.339Z,18.27
2022-12-13T01:12:21.902Z,20.70
2022-12-13T01:17:07.578Z,20.80
2022-12-13T01:21:55.644Z,13.43
2022-12-13T01:26:39.952Z,14.70
2022-12-13T01:31:23.429Z,16.37
2022-12-13T01:36:10.838Z,17.10
2022-12-13T01:40:58.746Z,18.13
2022-12-13T01:45:43.344Z,12.77
2022-12-13T01:50:30.100Z,14.43
2022-12-13T01:55:17.898Z,22.20
2022-12-13T02:00:03.581Z,16.40
2022-12-13T02:04:54.630Z,15.60
2022-12-13T02:09:38.692Z,19.00
2022-12-13T02:14:23.509Z,16.03
2022-12-13T02:19:49.344Z,16.63
2022-12-13T02:24:58.640Z,15.33
2022-12-13T02:30:19.738Z,15.17
2022-12-13T02:35:11.629Z,15.13
2022-12-13T02:39:59.949Z,13.57
2022-12-13T02:44:48.158Z,11.63
2022-12-13T02:49:36.500Z,11.53
2022-12-13T02:54:21.379Z,17.80
2022-12-13T02:59:10.260Z,15.10
2022-12-13T03:04:01.952Z,12.67
2022-12-13T03:08:51.846Z,17.07
2022-12-13T03:13:47.855Z,16.30
2022-12-13T03:18:33.385Z,12.67
2022-12-13T03:23:17.768Z,14.60
2022-12-13T03:28:02.398Z,16.00
2022-12-13T03:32:47.651Z,15.13
2022-12-13T03:37:31.315Z,13.33
2022-12-13T03:42:14.794Z,11.00
2022-12-13T03:46:58.235Z,12.23
2022-12-13T03:51:45.655Z,9.33
2022-12-13T03:56:29.426Z,12.97
2022-12-13T04:01:15.466Z,14.63
2022-12-13T04:05:58.885Z,12.97
2022-12-13T04:10:44.203Z,7.50
2022-12-13T04:15:27.636Z,14.73
2022-12-13T04:20:12.122Z,10.23
2022-12-13T04:24:55.563Z,14.20
2022-12-13T04:29:40.428Z,15.83
2022-12-13T04:34:26.415Z,22.37
2022-12-13T04:39:22.352Z,16.80
2022-12-13T04:44:28.155Z,10.97
2022-12-13T04:49:12.950Z,13.77
2022-12-13T04:53:56.477Z,15.30
2022-12-13T04:58:59.918Z,14.50
2022-12-13T05:03:43.315Z,15.20
2022-12-13T05:08:28.685Z,15.97
2022-12-13T05:13:12.186Z,14.57
2022-12-13T05:17:56.173Z,11.17
2022-12-13T05:22:39.730Z,16.90
2022-12-13T05:27:26.785Z,18.27
2022-12-13T05:32:11.010Z,16.00
2022-12-13T05:36:54.486Z,15.40
2022-12-13T05:41:38.871Z,11.27
2022-12-13T05:46:23.804Z,17.70
2022-12-13T05:51:10.785Z,14.63
2022-12-13T05:55:55.180Z,16.47
2022-12-13T06:00:39.021Z,15.90
2022-12-13T06:05:24.608Z,13.07
2022-12-13T06:10:10.940Z,17.60
2022-12-13T06:14:54.652Z,14.10
2022-12-13T06:19:46.835Z,17.53
2022-12-13T06:24:31.713Z,14.83
2022-12-13T06:29:24.567Z,17.33
2022-12-13T06:34:14.795Z,19.43
2022-12-13T06:39:03.011Z,23.60
2022-12-13T06:43:49.510Z,15.70
2022-12-13T06:48:33.426Z,22.63
2022-12-13T06:53:16.893Z,25.57
2022-12-13T06:58:00.415Z,13.87
2022-12-13T07:02:45.771Z,16.90
2022-12-13T07:07:29.961Z,18.10
2022-12-13T07:12:13.560Z,23.13
2022-12-13T07:17:03.359Z,22.97
2022-12-13T07:21:50.453Z,19.33
2022-12-13T07:26:34.041Z,26.17
2022-12-13T07:31:19.358Z,19.63
2022-12-13T07:36:03.557Z,23.50
2022-12-13T07:40:48.493Z,19.03
2022-12-13T07:45:32.189Z,22.30
2022-12-13T07:50:24.957Z,21.50
2022-12-13T07:55:10.753Z,23.50
2022-12-13T07:59:55.631Z,21.47
2022-12-13T08:04:39.175Z,23.63
2022-12-13T08:09:23.479Z,27.47
2022-12-13T08:14:07.504Z,20.93
2022-12-13T08:18:52.385Z,18.33
2022-12-13T08:23:46.875Z,20.17
2022-12-13T08:28:32.077Z,19.63
2022-12-13T08:33:15.565Z,20.90
2022-12-13T08:38:01.107Z,24.53
2022-12-13T08:42:44.844Z,25.30
2022-12-13T08:47:28.836Z,28.33
2022-12-13T08:52:12.475Z,27.53
2022-12-13T08:56:57.413Z,22.97
2022-12-13T09:01:40.863Z,24.97
2022-12-13T09:06:24.385Z,26.53
2022-12-13T09:11:11.293Z,26.60
2022-12-13T09:16:23.719Z,25.43
2022-12-13T09:21:10.915Z,26.73
2022-12-13T09:26:05.954Z,24.17
2022-12-13T09:30:50.266Z,26.80
2022-12-13T09:35:35.439Z,23.00
2022-12-13T09:40:26.002Z,26.70
2022-12-13T09:45:21.939Z,22.03
2022-12-13T09:50:15.363Z,13.67
2022-12-13T09:55:00.740Z,13.97
2022-12-13T09:59:44.461Z,13.07
2022-12-13T10:04:30.723Z,11.93
2022-12-13T10:09:15.814Z,13.07
2022-12-13T10:14:03.925Z,11.67
2022-12-13T10:18:47.450Z,12.63
2022-12-13T10:23:42.674Z,13.17
2022-12-13T10:28:35.378Z,15.27
2022-12-13T10:33:26.686Z,14.60
2022-12-13T10:38:31.707Z,12.43
2022-12-13T10:43:18.764Z,11.77
2022-12-13T10:48:04.466Z,10.00
2022-12-13T10:52:50.051Z,11.80
2022-12-13T10:57:34.429Z,11.47
2022-12-13T11:02:35.454Z,13.07
2022-12-13T11:07:27.218Z,11.80
2022-12-13T11:12:21.840Z,12.50
2022-12-13T11:17:11.715Z,10.53
2022-12-13T11:21:59.457Z,9.67
2022-12-13T11:26:53.986Z,12.03
2022-12-13T11:31:47.731Z,8.90
2022-12-13T11:36:43.228Z,10.40
2022-12-13T11:41:32.709Z,12.33
2022-12-13T11:46:21.977Z,14.23
2022-12-13T11:51:10.132Z,12.77
2022-12-13T11:56:00.354Z,11.50
2022-12-13T12:00:48.974Z,9.00
2022-12-13T12:05:38.270Z,10.77
2022-12-13T12:10:30.611Z,11.73
2022-12-13T12:15:26.728Z,15.83
2022-12-13T12:20:23.853Z,10.77
2022-12-13T12:25:29.307Z,14.30
2022-12-13T12:30:23.267Z,10.27
2022-12-13T12:35:27.434Z,13.40
2022-12-13T12:41:07.301Z,10.27
2022-12-13T12:45:57.316Z,10.57
2022-12-13T12:50:48.759Z,14.47
2022-12-13T12:55:46.047Z,10.73
2022-12-13T13:00:37.615Z,13.93
2022-12-13T13:05:26.900Z,11.23
2022-12-13T13:10:16.484Z,13.37
2022-12-13T13:15:47.001Z,15.47
2022-12-13T13:20:31.975Z,11.17
2022-12-13T13:25:23.535Z,16.07
2022-12-13T13:30:11.207Z,15.90
2022-12-13T13:34:54.718Z,11.47
2022-12-13T13:40:03.417Z,16.17
2022-12-13T13:45:19.555Z,19.10
2022-12-13T13:50:18.025Z,19.30
2022-12-13T13:55:38.877Z,21.67
2022-12-13T14:00:24.055Z,17.93
2022-12-13T14:05:47.931Z,23.97
2022-12-13T14:10:48.014Z,16.93
2022-12-13T14:16:12.197Z,16.57
2022-12-13T14:21:15.296Z,15.53
2022-12-13T14:26:20.891Z,16.40
2022-12-13T14:31:04.450Z,17.13
2022-12-13T14:35:53.679Z,15.87
2022-12-13T14:40:48.464Z,17.23
2022-12-13T14:45:36.870Z,14.67
2022-12-13T14:50:21.146Z,16.80
2022-12-13T14:55:06.272Z,17.43
2022-12-13T14:59:52.361Z,16.83
2022-12-13T15:04:38.079Z,18.00
2022-12-13T15:09:22.727Z,18.37
2022-12-13T15:14:12.775Z,18.27
2022-12-13T15:19:10.988Z,15.70
2022-12-13T15:23:57.229Z,16.43
2022-12-13T15:28:45.053Z,21.10
2022-12-13T15:33:34.413Z,18.13
2022-12-13T15:38:28.786Z,18.57
2022-12-13T15:43:19.756Z,18.20
2022-12-13T15:48:03.327Z,17.57
2022-12-13T15:52:47.928Z,25.20
2022-12-13T15:57:33.294Z,22.70
2022-12-13T16:02:21.843Z,20.93
2022-12-13T16:07:05.483Z,20.40
2022-12-13T16:11:53.138Z,20.40
2022-12-13T16:16:37.039Z,20.37
2022-12-13T16:21:22.141Z,21.57
2022-12-13T16:26:09.175Z,22.83
2022-12-13T16:31:05.616Z,19.13
2022-12-13T16:35:49.346Z,23.87
2022-12-13T16:40:35.017Z,20.87
2022-12-13T16:45:41.091Z,19.27
2022-12-13T16:50:26.726Z,18.33
2022-12-13T16:55:11.814Z,22.27
2022-12-13T16:59:57.489Z,21.10
2022-12-13T17:04:43.221Z,16.93
2022-12-13T17:09:32.484Z,22.27
2022-12-13T17:14:17.418Z,19.43
2022-12-13T17:19:06.481Z,18.13
2022-12-13T17:23:50.721Z,18.83
2022-12-13T17:28:37.324Z,17.57
2022-12-13T17:33:23.006Z,22.23
2022-12-13T17:38:10.241Z,22.43
2022-12-13T17:42:55.881Z,18.47
2022-12-13T17:47:40.239Z,31.33
2022-12-13T17:52:24.277Z,22.63
2022-12-13T17:57:12.089Z,22.43
2022-12-13T18:01:56.051Z,20.77
2022-12-13T18:06:41.131Z,20.87
2022-12-13T18:11:34.146Z,20.00
2022-12-13T18:16:22.254Z,22.87
2022-12-13T18:21:11.680Z,18.23
2022-12-13T18:26:01.619Z,18.87
2022-12-13T18:30:47.211Z,19.87
2022-12-13T18:35:33.750Z,19.07
2022-12-13T18:40:20.685Z,24.23
2022-12-13T18:45:09.664Z,25.30
2022-12-13T18:49:55.484Z,22.40
2022-12-13T18:54:44.080Z,24.60
2022-12-13T18:59:40.242Z,23.63
2022-12-13T19:04:30.843Z,19.63
2022-12-13T19:09:17.522Z,26.37
2022-12-13T19:14:05.558Z,24.93
2022-12-13T19:18:52.630Z,31.70
2022-12-13T19:23:40.634Z,30.47
2022-12-13T19:28:28.580Z,31.37
2022-12-13T19:33:15.846Z,25.40
2022-12-13T19:38:02.352Z,27.37
2022-12-13T19:42:48.135Z,26.17
2022-12-13T19:47:33.528Z,27.77
2022-12-13T19:52:28.513Z,26.30
2022-12-13T19:57:15.238Z,23.93
2022-12-13T20:02:00.955Z,29.87
2022-12-13T20:06:47.160Z,26.03
2022-12-13T20:11:34.501Z,25.33
2022-12-13T20:16:21.182Z,24.53
2022-12-13T20:21:12.493Z,27.57
2022-12-13T20:26:03.187Z,26.90
2022-12-13T20:30:51.697Z,29.63
2022-12-13T20:35:49.595Z,29.37
2022-12-13T20:40:41.907Z,27.10
2022-12-13T20:45:27.761Z,28.43
2022-12-13T20:50:16.814Z,33.30
2022-12-13T20:55:02.612Z,26.40
2022-12-13T20:59:48.717Z,31.77
2022-12-13T21:04:34.424Z,23.17
2022-12-13T21:09:21.313Z,28.47
2022-12-13T21:14:11.248Z,27.70
2022-12-13T21:19:01.702Z,29.07
2022-12-13T21:23:46.316Z,27.60
2022-12-13T21:28:32.344Z,28.53
2022-12-13T21:33:17.156Z,29.20
2022-12-13T21:38:05.328Z,25.03
2022-12-13T21:42:50.662Z,31.40
2022-12-13T21:47:36.215Z,27.20
2022-12-13T21:52:20.510Z,31.47
2022-12-13T21:57:23.518Z,27.77
2022-12-13T22:02:13.662Z,21.27
2022-12-13T22:06:58.813Z,27.43
2022-12-13T22:11:42.319Z,29.03
2022-12-13T22:16:25.824Z,26.63
2022-12-13T22:21:10.334Z,28.83
2022-12-13T22:25:55.963Z,27.70
2022-12-13T22:30:40.964Z,29.07
2022-12-13T22:35:24.509Z,31.97
2022-12-13T22:40:09.051Z,27.07
2022-12-13T22:44:54.080Z,28.50
2022-12-13T22:49:37.578Z,25.43
2022-12-13T22:54:21.439Z,26.63
2022-12-13T22:59:08.891Z,27.47
2022-12-13T23:03:55.200Z,25.50
2022-12-13T23:08:43.399Z,27.63
2022-12-13T23:13:27.865Z,26.30
2022-12-13T23:18:11.347Z,28.13
2022-12-13T23:22:56.286Z,27.23
2022-12-13T23:27:40.183Z,31.00
2022-12-13T23:32:23.609Z,31.23
2022-12-13T23:37:09.531Z,29.07
2022-12-13T23:41:54.441Z,28.27
2022-12-13T23:46:38.556Z,27.83
2022-12-13T23:51:22.373Z,28.13
2022-12-13T23:56:07.405Z,27.37
